Sturgis, Canada
Current Conditions -  °F | °C
As of 8:00 PM on Tuesday 21 Oct 2014 (Local Time) from CYQV Reporting Station
Clear Clear  
Wind Chill: 54°   Ceiling: Unl
Heat Index: 54°   Visibility: 9mi
Dew Point: 43°   Wind: 10mph
Humidity: 67%   Direction: 160°SSE
Pressure: 29.62"   Gusts: NA
Location:  51.85°N, 102.53°W
Report Text: CYQV 220200Z AUTO 16009KT 9SM CLR 12/06 A2962 RMK SLP042 DENSITY ALT 2000FT
Loading
Personal Weather Stations






























Interactive Weather Map
Tropical Storm Tracking
New forecast layout! Learn more

10-Day Weather Forecast

Advertisements
Track Severe Weather on mobile